createdAt,value
2023-05-14T00:00:15.400Z,59.40
2023-05-14T00:03:18.531Z,59.50
2023-05-14T00:06:21.516Z,59.50
2023-05-14T00:09:26.185Z,59.50
2023-05-14T00:12:30.053Z,59.50
2023-05-14T00:15:34.366Z,59.50
2023-05-14T00:18:37.763Z,59.50
2023-05-14T00:21:40.952Z,59.40
2023-05-14T00:24:47.987Z,59.40
2023-05-14T00:27:51.026Z,59.50
2023-05-14T00:30:55.266Z,59.60
2023-05-14T00:33:58.303Z,59.50
2023-05-14T00:37:01.340Z,59.60
2023-05-14T00:40:08.486Z,59.70
2023-05-14T00:43:11.554Z,59.70
2023-05-14T00:46:15.713Z,59.80
2023-05-14T00:49:19.302Z,59.90
2023-05-14T00:52:22.550Z,60.00
2023-05-14T00:55:27.695Z,59.90
2023-05-14T00:58:32.944Z,60.00
2023-05-14T01:01:36.520Z,60.00
2023-05-14T01:04:39.974Z,60.00
2023-05-14T01:07:54.088Z,59.90
2023-05-14T01:11:05.070Z,59.80
2023-05-14T01:14:22.743Z,59.70
2023-05-14T01:17:29.897Z,59.60
2023-05-14T01:20:32.919Z,59.50
2023-05-14T01:23:37.709Z,59.40
2023-05-14T01:26:40.933Z,59.40
2023-05-14T01:29:49.011Z,59.20
2023-05-14T01:32:56.627Z,59.10
2023-05-14T01:36:00.041Z,59.00
2023-05-14T01:39:05.240Z,58.90
2023-05-14T01:42:08.953Z,59.00
2023-05-14T01:45:12.493Z,58.80
2023-05-14T01:48:16.502Z,58.70
2023-05-14T01:51:19.624Z,58.90
2023-05-14T01:54:24.317Z,58.80
2023-05-14T01:57:27.332Z,58.70
2023-05-14T02:00:30.551Z,58.70
2023-05-14T02:03:33.546Z,58.60
2023-05-14T02:06:36.670Z,58.40
2023-05-14T02:09:41.238Z,58.00
2023-05-14T02:12:44.297Z,57.30
2023-05-14T02:15:47.316Z,56.70
2023-05-14T02:18:50.373Z,56.70
2023-05-14T02:21:53.495Z,56.70
2023-05-14T02:24:57.827Z,56.50
2023-05-14T02:28:02.293Z,56.30
2023-05-14T02:31:05.384Z,56.20
2023-05-14T02:34:08.465Z,56.10
2023-05-14T02:37:11.488Z,56.00
2023-05-14T02:40:18.757Z,56.00
2023-05-14T02:43:21.761Z,56.00
2023-05-14T02:46:24.941Z,56.00
2023-05-14T02:49:28.079Z,56.10
2023-05-14T02:52:31.076Z,56.00
2023-05-14T02:55:36.190Z,55.80
2023-05-14T02:58:39.317Z,55.70
2023-05-14T03:01:42.420Z,55.70
2023-05-14T03:04:46.755Z,55.70
2023-05-14T03:07:51.242Z,55.80
2023-05-14T03:10:55.870Z,55.70
2023-05-14T03:13:58.830Z,55.80
2023-05-14T03:17:04.067Z,55.80
2023-05-14T03:20:08.305Z,55.70
2023-05-14T03:23:11.326Z,55.70
2023-05-14T03:26:15.717Z,55.70
2023-05-14T03:29:18.965Z,55.70
2023-05-14T03:32:22.336Z,55.60
2023-05-14T03:35:25.587Z,55.50
2023-05-14T03:38:28.779Z,55.60
2023-05-14T03:41:33.590Z,54.70
2023-05-14T03:44:36.898Z,54.60
2023-05-14T03:47:39.984Z,54.60
2023-05-14T03:50:43.243Z,54.00
2023-05-14T03:53:46.337Z,54.00
2023-05-14T03:56:50.702Z,54.20
2023-05-14T03:59:53.791Z,54.20
2023-05-14T04:02:56.991Z,54.20
2023-05-14T04:06:00.195Z,54.30
2023-05-14T04:09:03.400Z,54.40
2023-05-14T04:12:09.491Z,54.60
2023-05-14T04:15:13.862Z,54.60
2023-05-14T04:18:17.185Z,54.90
2023-05-14T04:21:20.193Z,55.00
2023-05-14T04:24:23.179Z,55.20
2023-05-14T04:27:27.900Z,55.30
2023-05-14T04:30:31.106Z,55.30
2023-05-14T04:33:34.194Z,55.50
2023-05-14T04:36:37.236Z,55.60
2023-05-14T04:39:40.637Z,55.90
2023-05-14T04:42:45.096Z,56.10
2023-05-14T04:45:48.142Z,55.90
2023-05-14T04:48:51.809Z,56.10
2023-05-14T04:51:54.849Z,55.90
2023-05-14T04:54:57.867Z,56.10
2023-05-14T04:58:02.384Z,55.50
2023-05-14T05:01:06.339Z,55.60
2023-05-14T05:04:09.602Z,55.30
2023-05-14T05:07:16.094Z,54.60
2023-05-14T05:10:19.068Z,53.90
2023-05-14T05:13:26.728Z,52.50
2023-05-14T05:16:29.910Z,52.30
2023-05-14T05:19:43.035Z,52.20
2023-05-14T05:22:47.478Z,52.80
2023-05-14T05:25:50.926Z,52.60
2023-05-14T05:28:55.348Z,52.10
2023-05-14T05:31:58.611Z,52.30
2023-05-14T05:35:05.029Z,52.50
2023-05-14T05:38:08.013Z,53.10
2023-05-14T05:41:11.054Z,51.80
2023-05-14T05:44:15.512Z,52.20
2023-05-14T05:47:18.825Z,52.10
2023-05-14T05:50:22.791Z,51.90
2023-05-14T05:53:26.023Z,51.90
2023-05-14T05:56:29.257Z,51.80
2023-05-14T05:59:33.652Z,52.40
2023-05-14T06:02:36.932Z,51.70
2023-05-14T06:05:40.157Z,52.50
2023-05-14T06:08:43.507Z,51.90
2023-05-14T06:11:48.876Z,52.30
2023-05-14T06:14:55.231Z,51.20
2023-05-14T06:17:58.510Z,50.70
2023-05-14T06:21:01.577Z,50.40
2023-05-14T06:24:04.820Z,50.50
2023-05-14T06:27:08.112Z,50.10
2023-05-14T06:30:14.135Z,50.40
2023-05-14T06:33:18.686Z,50.10
2023-05-14T06:36:23.057Z,50.10
2023-05-14T06:39:26.015Z,50.70
2023-05-14T06:42:31.816Z,51.00
2023-05-14T06:45:36.582Z,50.80
2023-05-14T06:48:39.955Z,50.60
2023-05-14T06:51:43.078Z,50.50
2023-05-14T06:54:47.617Z,50.20
2023-05-14T06:57:51.169Z,49.80
2023-05-14T07:00:55.589Z,49.70
2023-05-14T07:03:58.727Z,49.50
2023-05-14T07:07:05.704Z,49.50
2023-05-14T07:10:09.406Z,49.80
2023-05-14T07:13:12.646Z,49.10
2023-05-14T07:16:17.186Z,49.70
2023-05-14T07:19:20.278Z,50.00
2023-05-14T07:22:23.406Z,49.10
2023-05-14T07:25:26.539Z,50.00
2023-05-14T07:28:29.617Z,49.20
2023-05-14T07:31:34.010Z,49.30
2023-05-14T07:34:37.130Z,49.90
2023-05-14T07:37:40.486Z,48.60
2023-05-14T07:40:43.662Z,49.30
2023-05-14T07:43:48.222Z,48.00
2023-05-14T07:46:52.697Z,48.00
2023-05-14T07:49:56.616Z,48.40
2023-05-14T07:52:59.558Z,48.30
2023-05-14T07:56:02.593Z,48.60
2023-05-14T07:59:07.018Z,47.90
2023-05-14T08:02:12.838Z,47.70
2023-05-14T08:05:16.594Z,47.60
2023-05-14T08:08:19.724Z,46.70
2023-05-14T08:11:23.037Z,46.70
2023-05-14T08:14:26.152Z,46.10
2023-05-14T08:17:30.628Z,46.50
2023-05-14T08:20:33.851Z,45.80
2023-05-14T08:23:36.870Z,45.30
2023-05-14T08:26:39.990Z,46.10
2023-05-14T08:29:43.041Z,44.60
2023-05-14T08:32:47.505Z,44.20
2023-05-14T08:35:51.786Z,43.90
2023-05-14T08:38:54.916Z,43.70
2023-05-14T08:41:59.078Z,44.20
2023-05-14T08:45:03.641Z,43.50
2023-05-14T08:48:12.205Z,44.00
2023-05-14T08:51:15.933Z,43.60
2023-05-14T08:54:19.220Z,43.10
2023-05-14T08:57:24.727Z,42.70
2023-05-14T09:00:28.054Z,44.00
2023-05-14T09:03:33.265Z,44.00
2023-05-14T09:06:37.868Z,43.40
2023-05-14T09:09:45.007Z,42.90
2023-05-14T09:12:48.172Z,42.50
2023-05-14T09:15:51.729Z,42.50
2023-05-14T09:18:56.395Z,42.40
2023-05-14T09:22:00.195Z,42.10
2023-05-14T09:25:05.961Z,41.90
2023-05-14T09:28:13.632Z,41.70
2023-05-14T09:31:16.731Z,42.10
2023-05-14T09:34:27.963Z,41.00
2023-05-14T09:37:30.959Z,41.70
2023-05-14T09:40:34.056Z,42.50
2023-05-14T09:43:37.134Z,41.70
2023-05-14T09:46:40.136Z,42.60
2023-05-14T09:49:44.506Z,42.30
2023-05-14T09:52:47.606Z,42.00
2023-05-14T09:55:50.747Z,41.60
2023-05-14T09:58:55.015Z,41.70
2023-05-14T10:01:59.370Z,41.50
2023-05-14T10:05:06.993Z,41.80
2023-05-14T10:08:14.703Z,41.90
2023-05-14T10:11:22.286Z,41.50
2023-05-14T10:14:28.259Z,41.80
2023-05-14T10:17:35.833Z,42.10
2023-05-14T10:20:41.494Z,42.20
2023-05-14T10:23:44.860Z,41.90
2023-05-14T10:26:48.682Z,41.90
2023-05-14T10:29:55.374Z,42.10
2023-05-14T10:33:09.431Z,42.40
2023-05-14T10:36:14.215Z,42.20
2023-05-14T10:39:17.280Z,42.50
2023-05-14T10:42:23.389Z,41.50
2023-05-14T10:45:27.925Z,41.60
2023-05-14T10:48:31.128Z,41.60
2023-05-14T10:51:37.721Z,41.60
2023-05-14T10:54:41.083Z,41.80
2023-05-14T10:57:45.548Z,41.90
2023-05-14T11:00:50.032Z,42.30
2023-05-14T11:03:55.906Z,42.50
2023-05-14T11:07:04.265Z,42.60
2023-05-14T11:10:09.211Z,42.10
2023-05-14T11:13:13.251Z,42.50
2023-05-14T11:16:23.199Z,43.10
2023-05-14T11:19:27.235Z,43.50
2023-05-14T11:22:31.686Z,42.90
2023-05-14T11:25:34.717Z,43.30
2023-05-14T11:28:38.640Z,43.30
2023-05-14T11:31:42.347Z,43.50
2023-05-14T11:34:46.231Z,44.10
2023-05-14T11:37:53.208Z,43.40
2023-05-14T11:40:56.672Z,43.20
2023-05-14T11:44:00.150Z,43.20
2023-05-14T11:47:04.994Z,43.30
2023-05-14T11:50:09.796Z,42.80
2023-05-14T11:53:18.292Z,43.30
2023-05-14T11:56:22.735Z,43.80
2023-05-14T11:59:26.216Z,43.30
2023-05-14T12:02:30.384Z,43.20
2023-05-14T12:05:34.254Z,43.40
2023-05-14T12:08:38.823Z,43.30
2023-05-14T12:11:41.796Z,43.00
2023-05-14T12:14:45.549Z,42.90
2023-05-14T12:17:51.886Z,43.00
2023-05-14T12:20:55.284Z,42.70
2023-05-14T12:24:01.005Z,42.50
2023-05-14T12:27:04.536Z,42.10
2023-05-14T12:33:16.290Z,42.90
2023-05-14T12:36:21.820Z,42.00
2023-05-14T12:39:26.807Z,42.10
2023-05-14T12:42:29.796Z,41.30
2023-05-14T12:45:32.801Z,41.20
2023-05-14T12:48:35.879Z,41.10
2023-05-14T12:51:39.271Z,40.70
2023-05-14T12:54:44.131Z,40.50
2023-05-14T12:57:47.181Z,41.10
2023-05-14T13:00:50.175Z,40.60
2023-05-14T13:03:53.280Z,40.80
2023-05-14T13:06:56.412Z,40.80
2023-05-14T13:10:00.936Z,40.60
2023-05-14T13:13:03.879Z,40.80
2023-05-14T13:16:07.679Z,40.70
2023-05-14T13:19:10.851Z,41.10
2023-05-14T13:22:14.367Z,40.70
2023-05-14T13:25:18.896Z,41.60
2023-05-14T13:28:21.970Z,41.80
2023-05-14T13:31:25.029Z,41.60
2023-05-14T13:34:28.326Z,41.70
2023-05-14T13:37:31.334Z,41.90
2023-05-14T13:40:35.850Z,42.00
2023-05-14T13:43:38.996Z,42.60
2023-05-14T13:46:42.869Z,41.80
2023-05-14T13:49:45.930Z,41.80
2023-05-14T13:52:48.971Z,41.60
2023-05-14T13:55:56.445Z,41.60
2023-05-14T13:58:59.642Z,41.30
2023-05-14T14:02:03.563Z,41.40
2023-05-14T14:05:08.227Z,41.50
2023-05-14T14:08:22.563Z,41.90
2023-05-14T14:11:28.422Z,42.30
2023-05-14T14:14:31.473Z,42.00
2023-05-14T14:17:35.006Z,41.60
2023-05-14T14:20:37.949Z,42.00
2023-05-14T14:23:40.965Z,43.50
2023-05-14T14:26:45.248Z,42.90
2023-05-14T14:29:48.595Z,42.80
2023-05-14T14:32:52.308Z,42.50
2023-05-14T14:35:56.233Z,42.40
2023-05-14T14:38:59.176Z,41.70
2023-05-14T14:42:03.559Z,42.10
2023-05-14T14:45:07.541Z,42.20
2023-05-14T14:48:28.133Z,42.00
2023-05-14T14:51:31.355Z,41.50
2023-05-14T14:54:34.509Z,40.70
2023-05-14T14:57:38.870Z,40.20
2023-05-14T15:00:42.074Z,40.20
2023-05-14T15:03:45.683Z,40.30
2023-05-14T15:06:49.053Z,39.70
2023-05-14T15:09:52.268Z,40.40
2023-05-14T15:12:58.458Z,40.60
2023-05-14T15:16:02.063Z,40.50
2023-05-14T15:19:05.261Z,39.80
2023-05-14T15:22:08.432Z,40.80
2023-05-14T15:25:14.903Z,40.40
2023-05-14T15:28:19.553Z,40.10
2023-05-14T15:31:22.952Z,40.90
2023-05-14T15:34:26.393Z,40.70
2023-05-14T15:37:29.410Z,40.80
2023-05-14T15:40:33.165Z,40.90
2023-05-14T15:43:37.517Z,40.60
2023-05-14T15:46:40.468Z,41.20
2023-05-14T15:49:43.581Z,41.10
2023-05-14T15:52:46.853Z,41.20
2023-05-14T15:55:50.064Z,41.40
2023-05-14T15:58:54.505Z,41.40
2023-05-14T16:01:57.542Z,41.50
2023-05-14T16:05:00.656Z,41.60
2023-05-14T16:08:03.698Z,41.50
2023-05-14T16:11:07.704Z,41.80
2023-05-14T16:14:12.187Z,41.70
2023-05-14T16:17:15.375Z,41.80
2023-05-14T16:20:18.571Z,41.60
2023-05-14T16:23:21.816Z,41.90
2023-05-14T16:26:26.097Z,42.30
2023-05-14T16:29:31.204Z,42.40
2023-05-14T16:32:34.227Z,42.80
2023-05-14T16:35:37.345Z,42.60
2023-05-14T16:38:52.389Z,42.80
2023-05-14T16:42:03.645Z,43.50
2023-05-14T16:45:09.319Z,43.20
2023-05-14T16:48:12.361Z,43.10
2023-05-14T16:51:15.670Z,43.70
2023-05-14T16:54:18.632Z,43.20
2023-05-14T16:57:21.615Z,43.10
2023-05-14T17:00:26.413Z,43.40
2023-05-14T17:03:29.826Z,43.20
2023-05-14T17:06:32.806Z,43.30
2023-05-14T17:09:35.810Z,43.70
2023-05-14T17:12:38.845Z,43.90
2023-05-14T17:15:43.265Z,44.20
2023-05-14T17:18:46.955Z,44.30
2023-05-14T17:21:50.018Z,44.30
2023-05-14T17:24:53.036Z,44.50
2023-05-14T17:27:56.063Z,44.70
2023-05-14T17:31:00.395Z,45.10
2023-05-14T17:34:03.400Z,45.30
2023-05-14T17:37:06.514Z,45.10
2023-05-14T17:40:10.649Z,45.20
2023-05-14T17:43:13.947Z,45.50
2023-05-14T17:46:18.549Z,45.50
2023-05-14T17:49:21.641Z,45.70
2023-05-14T17:52:24.738Z,45.90
2023-05-14T17:55:28.178Z,45.90
2023-05-14T17:58:31.312Z,46.10
2023-05-14T18:01:35.867Z,46.40
2023-05-14T18:04:38.874Z,46.60
2023-05-14T18:07:42.036Z,47.10
2023-05-14T18:10:45.047Z,46.80
2023-05-14T18:13:48.085Z,47.20
2023-05-14T18:16:52.486Z,47.50
2023-05-14T18:19:55.552Z,47.70
2023-05-14T18:22:58.627Z,47.70
2023-05-14T18:26:01.604Z,47.50
2023-05-14T18:29:05.040Z,47.70
2023-05-14T18:32:09.763Z,47.80
2023-05-14T18:35:14.077Z,47.70
2023-05-14T18:38:17.849Z,48.00
2023-05-14T18:41:21.410Z,48.40
2023-05-14T18:44:26.987Z,48.60
2023-05-14T18:47:31.606Z,48.90
2023-05-14T18:50:34.985Z,49.10
2023-05-14T18:53:38.718Z,49.30
2023-05-14T18:56:46.816Z,49.50
2023-05-14T18:59:50.597Z,49.30
2023-05-14T19:02:55.097Z,49.80
2023-05-14T19:05:58.063Z,50.00
2023-05-14T19:09:01.709Z,50.40
2023-05-14T19:12:05.086Z,50.30
2023-05-14T19:15:08.959Z,50.40
2023-05-14T19:18:13.882Z,50.50
2023-05-14T19:21:17.137Z,50.80
2023-05-14T19:24:20.109Z,50.80
2023-05-14T19:27:24.366Z,50.90
2023-05-14T19:30:27.546Z,51.20
2023-05-14T19:33:32.241Z,51.50
2023-05-14T19:36:35.397Z,51.40
2023-05-14T19:39:38.546Z,51.60
2023-05-14T19:42:41.695Z,51.70
2023-05-14T19:45:45.872Z,51.90
2023-05-14T19:48:50.631Z,52.10
2023-05-14T19:51:53.662Z,51.90
2023-05-14T19:54:56.615Z,52.00
2023-05-14T19:57:59.720Z,51.90
2023-05-14T20:01:02.786Z,51.90
2023-05-14T20:04:07.334Z,52.10
2023-05-14T20:07:10.469Z,52.30
2023-05-14T20:10:14.138Z,52.50
2023-05-14T20:13:17.162Z,52.80
2023-05-14T20:16:20.341Z,53.20
2023-05-14T20:19:24.834Z,53.20
2023-05-14T20:22:29.422Z,53.50
2023-05-14T20:25:33.551Z,53.40
2023-05-14T20:28:37.232Z,53.40
2023-05-14T20:31:40.332Z,53.90
2023-05-14T20:34:44.891Z,53.90
2023-05-14T20:37:49.421Z,54.10
2023-05-14T20:40:52.499Z,54.00
2023-05-14T20:43:55.509Z,54.20
2023-05-14T20:46:58.530Z,54.20
2023-05-14T20:50:03.431Z,54.50
2023-05-14T20:53:06.546Z,54.80
2023-05-14T20:56:09.655Z,54.90
2023-05-14T20:59:15.399Z,54.80
2023-05-14T21:02:18.548Z,54.70
2023-05-14T21:05:23.565Z,54.70
2023-05-14T21:08:26.875Z,55.00
2023-05-14T21:11:30.288Z,55.20
2023-05-14T21:14:33.404Z,55.30
2023-05-14T21:17:36.490Z,55.10
2023-05-14T21:20:42.381Z,55.10
2023-05-14T21:23:45.962Z,55.10
2023-05-14T21:26:49.477Z,55.20
2023-05-14T21:29:53.354Z,55.50
2023-05-14T21:32:56.451Z,55.40
2023-05-14T21:36:00.801Z,55.70
2023-05-14T21:39:03.813Z,55.70
2023-05-14T21:42:07.463Z,55.90
2023-05-14T21:45:11.329Z,56.10
2023-05-14T21:48:14.467Z,56.30
2023-05-14T21:51:18.953Z,56.60
2023-05-14T21:54:22.267Z,56.60
2023-05-14T21:57:28.162Z,56.60
2023-05-14T22:00:31.773Z,56.80
2023-05-14T22:03:34.814Z,56.80
2023-05-14T22:06:39.209Z,56.90
2023-05-14T22:09:42.275Z,57.00
2023-05-14T22:12:46.290Z,57.10
2023-05-14T22:15:51.446Z,57.40
2023-05-14T22:19:01.337Z,57.50
2023-05-14T22:22:06.025Z,57.70
2023-05-14T22:25:09.936Z,57.90
2023-05-14T22:28:13.031Z,58.00
2023-05-14T22:31:16.043Z,58.00
2023-05-14T22:34:19.282Z,58.20
2023-05-14T22:37:23.651Z,58.30
2023-05-14T22:40:26.677Z,58.40
2023-05-14T22:43:29.689Z,58.50
2023-05-14T22:46:32.696Z,58.70
2023-05-14T22:49:35.740Z,58.80
2023-05-14T22:52:40.592Z,59.00
2023-05-14T22:55:43.629Z,59.00
2023-05-14T22:58:46.642Z,59.10
2023-05-14T23:01:49.692Z,59.00
2023-05-14T23:04:52.877Z,59.00
2023-05-14T23:07:57.281Z,59.10
2023-05-14T23:11:00.297Z,59.20
2023-05-14T23:14:03.328Z,59.30
2023-05-14T23:17:06.897Z,59.50
2023-05-14T23:20:12.600Z,59.70
2023-05-14T23:23:17.016Z,59.70
2023-05-14T23:26:20.048Z,60.00
2023-05-14T23:29:23.021Z,60.20
2023-05-14T23:32:26.108Z,60.20
2023-05-14T23:35:29.149Z,60.30
2023-05-14T23:38:34.055Z,60.30
2023-05-14T23:41:36.970Z,60.30
2023-05-14T23:44:39.997Z,60.30
2023-05-14T23:47:43.151Z,60.50
2023-05-14T23:50:46.361Z,60.70
2023-05-14T23:53:53.081Z,60.80
2023-05-14T23:56:56.120Z,60.90
2023-05-14T23:59:59.210Z,61.00
